createdAt,value
2022-08-17T09:41:12.714Z,61
2022-08-17T09:51:13.056Z,61
2022-08-17T10:01:14.033Z,61
2022-08-17T10:31:35.606Z,61
2022-08-17T10:31:37.865Z,61
2022-08-17T10:51:23.875Z,60
2022-08-17T11:01:24.767Z,61
2022-08-17T11:21:25.322Z,62
2022-08-17T11:31:38.126Z,63
2022-08-17T11:51:26.776Z,65
2022-08-17T12:01:26.864Z,65
2022-08-17T12:21:27.969Z,66
2022-08-17T12:31:28.396Z,66
2022-08-17T12:41:28.979Z,66
2022-08-17T12:51:29.493Z,67
2022-08-17T13:01:30.495Z,67
2022-08-17T13:11:30.616Z,66
2022-08-17T13:21:31.448Z,66
2022-08-17T13:31:31.851Z,65
2022-08-17T13:41:32.409Z,65
2022-08-17T13:51:33.286Z,64
2022-08-17T14:01:33.680Z,67
2022-08-17T14:11:34.352Z,69
2022-08-17T14:21:35.078Z,68
2022-08-17T14:31:37.645Z,70
2022-08-17T14:51:37.049Z,67
2022-08-17T15:01:37.997Z,68
2022-08-17T15:11:39.012Z,69
2022-08-17T15:21:39.375Z,69
2022-08-17T15:41:40.360Z,72
2022-08-17T15:51:41.263Z,72
2022-08-17T16:02:16.377Z,72
2022-08-17T16:11:42.886Z,72
2022-08-17T16:21:43.591Z,73
2022-08-17T16:41:45.198Z,73
2022-08-17T16:51:45.493Z,74
2022-08-17T17:01:45.644Z,73
2022-08-17T17:11:45.898Z,73
2022-08-17T17:21:46.599Z,75
2022-08-17T17:41:46.926Z,76
2022-08-17T17:51:55.768Z,78
2022-08-17T18:01:47.475Z,78
2022-08-17T18:11:48.692Z,78
2022-08-17T18:31:49.163Z,80
2022-08-17T18:41:49.870Z,81
2022-08-17T18:51:50.914Z,82
2022-08-17T19:01:52.502Z,83
2022-08-17T19:11:52.650Z,85
2022-08-17T19:21:53.415Z,85
2022-08-17T19:31:53.983Z,87
2022-08-17T19:41:54.984Z,87
2022-08-17T19:51:55.845Z,88
2022-08-17T20:01:56.768Z,89
2022-08-17T20:11:57.593Z,89
2022-08-17T20:21:57.847Z,89
2022-08-17T20:31:58.158Z,89
2022-08-17T20:42:02.550Z,90
2022-08-17T20:52:01.076Z,91
2022-08-17T21:01:59.962Z,91
2022-08-17T21:12:03.550Z,92
2022-08-17T21:22:01.427Z,92
2022-08-17T21:32:02.246Z,94
2022-08-17T21:42:02.626Z,94
2022-08-17T21:52:03.390Z,95
2022-08-17T22:02:04.383Z,95
2022-08-17T22:12:05.473Z,95
2022-08-17T22:22:05.935Z,96
2022-08-17T22:32:06.118Z,97
2022-08-17T22:42:06.707Z,97
2022-08-17T23:02:07.867Z,98
2022-08-17T23:12:08.354Z,98
2022-08-17T23:22:09.061Z,100
2022-08-17T23:32:09.714Z,99
2022-08-17T23:42:10.079Z,99
